San Mateo, Florida
Current Conditions -  °F | °C
As of 8:58 AM on Saturday 01 Nov 2014 (Local Time) from KSGJ Reporting Station
Clear Clear  
Wind Chill: 43°   Ceiling: Unl
Heat Index: 48°   Visibility: 10mi
Dew Point: 28°   Wind: 13mph
Humidity: 46%   Direction: 300°WNW
Pressure: 29.98"   Gusts: 22mph
Location:  29.59°N, 81.6°W
Report Text: KSGJ 011258Z 30011G19KT 10SM CLR 09/M02 A2998 RMK AO2 PK WND 31030/1212 SLP151 T00891022
Loading
Personal Weather Stations






























Interactive Weather Map
Tropical Storm Tracking
New forecast layout! Learn more

10-Day Weather Forecast

Advertisements
Track Severe Weather on mobile